Time;durP1;ratioP1;P1;durP2;ratioP2;P2;SDS_P1;SDS_P2;PMS_P1;PMS_P2;Temp;Humidity;BMP_temperature;BMP_pressure;BME280_temperature;BME280_humidity;BME280_pressure;Samples;Min_cycle;Max_cycle;Signal;HPM_P1;HPM_P2
2022/05/01 00:01:18;;;;;;;;;;;12.20;94.30;;;;;;4333142;33;44473;-85
2022/05/01 00:03:51;;;;;;;;;;;12.10;94.30;;;;;;4333648;33;43660;-84
2022/05/01 00:06:24;;;;;;;;;;;12.10;94.30;;;;;;4346864;33;44272;-84
2022/05/01 00:08:54;;;;;;;;;;;12.10;94.30;;;;;;4346392;33;42982;-84
2022/05/01 00:11:21;;;;;;;;;;;12.10;94.30;;;;;;4333655;33;44132;-84
2022/05/01 00:13:54;;;;;;;;;;;12.10;94.30;;;;;;4333208;33;43331;-84
2022/05/01 00:16:29;;;;;;;;;;;12.10;94.30;;;;;;4346813;33;43991;-84
2022/05/01 00:19:01;;;;;;;;;;;12.10;94.30;;;;;;4333495;33;43941;-83
2022/05/01 00:21:37;;;;;;;;;;;12.00;94.30;;;;;;4347221;33;20061;-84
2022/05/01 00:24:07;;;;;;;;;;;12.10;94.40;;;;;;4332966;33;44420;-84
2022/05/01 00:26:40;;;;;;;;;;;12.10;94.40;;;;;;4332838;33;43219;-84
2022/05/01 00:29:07;;;;;;;;;;;12.00;94.40;;;;;;4333308;33;45894;-84
2022/05/01 00:31:40;;;;;;;;;;;12.00;94.30;;;;;;4332769;33;43883;-84
2022/05/01 00:37:14;;;;;;;;;;;12.00;94.40;;;;;;4285952;33;44052;-84
2022/05/01 00:39:46;;;;;;;;;;;12.00;94.40;;;;;;4274040;33;46034;-84
2022/05/01 00:42:17;;;;;;;;;;;12.00;94.40;;;;;;4317187;33;43867;-85
2022/05/01 00:44:52;;;;;;;;;;;12.00;94.40;;;;;;4332699;33;44108;-83
2022/05/01 00:47:23;;;;;;;;;;;12.00;94.50;;;;;;4332575;33;43127;-83
2022/05/01 00:49:58;;;;;;;;;;;12.00;94.50;;;;;;4332914;33;45751;-83
2022/05/01 00:52:32;;;;;;;;;;;12.00;94.50;;;;;;4334275;33;19994;-83
2022/05/01 00:55:05;;;;;;;;;;;11.90;94.50;;;;;;4332937;33;43001;-84
2022/05/01 00:57:35;;;;;;;;;;;12.00;94.60;;;;;;4332491;33;44231;-84
2022/05/01 01:00:10;;;;;;;;;;;11.90;94.60;;;;;;4333340;33;42219;-83
2022/05/01 01:02:43;;;;;;;;;;;11.90;94.60;;;;;;4345505;33;42654;-83
2022/05/01 01:05:16;;;;;;;;;;;11.90;94.70;;;;;;4346097;33;43076;-84
2022/05/01 01:07:48;;;;;;;;;;;11.80;94.70;;;;;;4332348;33;44454;-83
2022/05/01 01:10:15;;;;;;;;;;;11.90;94.70;;;;;;4332789;33;44626;-84
2022/05/01 01:12:54;;;;;;;;;;;11.90;94.70;;;;;;4345578;33;42296;-83
2022/05/01 01:15:35;;;;;;;;;;;11.90;94.80;;;;;;4345982;33;44271;-83
2022/05/01 01:18:11;;;;;;;;;;;11.90;94.80;;;;;;4345876;33;44179;-83
2022/05/01 01:20:44;;;;;;;;;;;11.90;94.80;;;;;;4345506;33;43505;-83
2022/05/01 01:23:19;;;;;;;;;;;11.90;94.90;;;;;;4333300;33;19997;-83
2022/05/01 01:25:49;;;;;;;;;;;11.90;94.90;;;;;;4332634;33;44067;-83
2022/05/01 01:28:25;;;;;;;;;;;11.90;94.90;;;;;;4332475;33;41781;-82
2022/05/01 01:33:48;;;;;;;;;;;11.80;94.80;;;;;;4345733;33;46063;-83
2022/05/01 01:36:16;;;;;;;;;;;11.90;94.90;;;;;;4332440;33;45341;-82
2022/05/01 01:38:48;;;;;;;;;;;11.80;94.80;;;;;;4332886;33;43967;-83
2022/05/01 01:41:24;;;;;;;;;;;11.80;94.90;;;;;;4345060;33;44151;-82
2022/05/01 01:43:54;;;;;;;;;;;11.80;95.00;;;;;;4332083;33;42978;-83
2022/05/01 01:46:30;;;;;;;;;;;11.80;95.00;;;;;;4331955;33;42644;-83
2022/05/01 01:49:07;;;;;;;;;;;11.80;94.90;;;;;;4332571;33;44432;-82
2022/05/01 01:51:41;;;;;;;;;;;11.80;95.00;;;;;;4332238;33;44957;-83
2022/05/01 01:54:13;;;;;;;;;;;11.80;95.00;;;;;;4332764;33;20040;-83
2022/05/01 01:56:43;;;;;;;;;;;11.80;95.10;;;;;;4332298;33;45009;-83
2022/05/01 01:59:22;;;;;;;;;;;11.80;95.10;;;;;;4344985;33;42744;-82
2022/05/01 02:01:49;;;;;;;;;;;11.80;95.10;;;;;;4331385;33;42035;-83
2022/05/01 02:04:19;;;;;;;;;;;11.70;95.20;;;;;;4332250;33;43760;-83
2022/05/01 02:06:52;;;;;;;;;;;11.70;95.10;;;;;;4331248;33;42649;-83
2022/05/01 02:09:25;;;;;;;;;;;11.80;95.10;;;;;;4332140;33;44875;-82
2022/05/01 02:11:59;;;;;;;;;;;11.70;95.20;;;;;;4332234;33;43780;-82
2022/05/01 02:14:34;;;;;;;;;;;11.70;95.20;;;;;;4331571;33;44302;-83
2022/05/01 02:17:07;;;;;;;;;;;11.70;95.10;;;;;;4332055;33;45775;-83
2022/05/01 02:19:43;;;;;;;;;;;11.70;95.10;;;;;;4332174;33;45054;-83
2022/05/01 02:22:13;;;;;;;;;;;11.70;95.20;;;;;;4344857;33;43981;-83
2022/05/01 02:24:43;;;;;;;;;;;11.70;95.30;;;;;;4346089;33;20001;-83
2022/05/01 02:27:18;;;;;;;;;;;11.60;95.30;;;;;;4331406;33;44471;-83
2022/05/01 02:29:46;;;;;;;;;;;11.60;95.30;;;;;;4332094;33;43989;-83
2022/05/01 02:32:14;;;;;;;;;;;11.60;95.30;;;;;;4331637;33;44657;-82
2022/05/01 02:34:41;;;;;;;;;;;11.60;95.30;;;;;;4345190;33;44191;-81
2022/05/01 02:37:16;;;;;;;;;;;11.60;95.30;;;;;;4345178;33;43963;-82
2022/05/01 02:39:48;;;;;;;;;;;11.60;95.40;;;;;;4345077;33;46192;-83
2022/05/01 02:42:20;;;;;;;;;;;11.60;95.40;;;;;;4344850;33;42723;-83
2022/05/01 02:44:59;;;;;;;;;;;11.60;95.40;;;;;;4331872;33;43296;-83
2022/05/01 02:47:31;;;;;;;;;;;11.50;95.40;;;;;;4331430;33;42807;-83
2022/05/01 02:50:01;;;;;;;;;;;11.60;95.50;;;;;;4344661;33;43043;-83
2022/05/01 02:52:31;;;;;;;;;;;11.60;95.50;;;;;;4331456;33;42367;-83
2022/05/01 02:55:03;;;;;;;;;;;11.50;95.40;;;;;;4332754;33;20103;-83
2022/05/01 02:57:31;;;;;;;;;;;11.50;95.40;;;;;;4344758;33;42368;-82
2022/05/01 03:00:10;;;;;;;;;;;11.50;95.60;;;;;;4331511;33;44223;-82
2022/05/01 03:02:55;;;;;;;;;;;11.50;95.60;;;;;;4331280;33;44626;-82
2022/05/01 03:05:31;;;;;;;;;;;11.50;95.60;;;;;;4344691;33;43308;-82
2022/05/01 03:07:58;;;;;;;;;;;11.50;95.70;;;;;;4344943;33;43520;-83
2022/05/01 03:10:24;;;;;;;;;;;11.50;95.70;;;;;;4346297;33;20010;-82
2022/05/01 03:12:51;;;;;;;;;;;11.50;95.70;;;;;;4331572;33;43021;-83
2022/05/01 03:15:24;;;;;;;;;;;11.50;95.70;;;;;;4331147;33;43045;-83
2022/05/01 03:23:34;;;;;;;;;;;11.50;95.80;;;;;;4347486;33;44223;-82
2022/05/01 03:26:04;;;;;;;;;;;11.50;95.90;;;;;;4347287;33;44373;-83
2022/05/01 03:28:37;;;;;;;;;;;11.50;95.90;;;;;;4333983;33;42716;-82
2022/05/01 03:31:09;;;;;;;;;;;11.50;95.90;;;;;;4347462;33;43109;-82
2022/05/01 03:33:41;;;;;;;;;;;11.50;95.90;;;;;;4334123;33;44290;-82
2022/05/01 03:36:12;;;;;;;;;;;11.40;95.90;;;;;;4347314;33;44054;-82
2022/05/01 03:38:44;;;;;;;;;;;11.40;96.00;;;;;;4347289;33;44320;-82
2022/05/01 03:41:26;;;;;;;;;;;11.40;96.10;;;;;;4346854;33;43570;-82
2022/05/01 03:43:58;;;;;;;;;;;11.40;96.00;;;;;;4347199;33;43298;-82
2022/05/01 03:46:36;;;;;;;;;;;11.40;96.20;;;;;;4334242;33;44082;-82
2022/05/01 03:49:06;;;;;;;;;;;11.30;96.30;;;;;;4346864;33;44202;-82
2022/05/01 03:51:45;;;;;;;;;;;11.30;96.40;;;;;;4333660;33;42893;-83
2022/05/01 03:54:15;;;;;;;;;;;11.30;96.40;;;;;;4334226;33;43026;-83
2022/05/01 03:56:49;;;;;;;;;;;11.30;96.50;;;;;;4333815;33;42496;-82
2022/05/01 03:59:18;;;;;;;;;;;11.30;96.50;;;;;;4346732;33;44039;-82
2022/05/01 04:01:54;;;;;;;;;;;11.30;96.50;;;;;;4346292;33;44648;-82
2022/05/01 04:04:27;;;;;;;;;;;11.30;96.40;;;;;;4333230;33;43906;-82
2022/05/01 04:06:57;;;;;;;;;;;11.30;96.50;;;;;;4333539;33;43576;-82
2022/05/01 04:09:33;;;;;;;;;;;11.20;96.50;;;;;;4346782;33;44167;-83
2022/05/01 04:12:03;;;;;;;;;;;11.20;96.50;;;;;;4347016;33;44120;-82
2022/05/01 04:14:38;;;;;;;;;;;11.20;96.60;;;;;;4346830;33;45721;-82
2022/05/01 04:17:05;;;;;;;;;;;11.20;96.60;;;;;;4346723;33;43312;-82
2022/05/01 04:19:39;;;;;;;;;;;11.20;96.70;;;;;;4346615;33;44610;-82
2022/05/01 04:22:06;;;;;;;;;;;11.20;96.70;;;;;;4333047;33;43308;-82
2022/05/01 04:24:38;;;;;;;;;;;11.10;96.70;;;;;;4332980;33;44123;-82
2022/05/01 04:27:12;;;;;;;;;;;11.10;96.90;;;;;;4334062;33;20466;-81
2022/05/01 04:29:44;;;;;;;;;;;11.10;96.90;;;;;;4346201;33;44032;-82
2022/05/01 04:32:16;;;;;;;;;;;11.10;96.80;;;;;;4333341;33;44310;-81
2022/05/01 04:34:49;;;;;;;;;;;11.10;96.80;;;;;;4332838;33;43003;-82
2022/05/01 04:37:25;;;;;;;;;;;11.20;96.90;;;;;;4333254;33;43632;-82
2022/05/01 04:39:55;;;;;;;;;;;11.10;96.90;;;;;;4346607;33;43907;-82
2022/05/01 04:42:25;;;;;;;;;;;11.10;96.90;;;;;;4346307;33;44390;-82
2022/05/01 04:45:01;;;;;;;;;;;11.10;96.90;;;;;;4333090;33;42633;-82
2022/05/01 04:47:31;;;;;;;;;;;11.10;96.80;;;;;;4332978;33;44022;-82
2022/05/01 04:50:03;;;;;;;;;;;11.20;96.90;;;;;;4346069;33;43513;-81
2022/05/01 04:52:39;;;;;;;;;;;11.10;96.90;;;;;;4345848;33;43160;-81
2022/05/01 04:55:12;;;;;;;;;;;11.20;96.80;;;;;;4332452;33;43814;-81
2022/05/01 04:57:44;;;;;;;;;;;11.20;96.90;;;;;;4333526;33;19998;-81
2022/05/01 05:00:18;;;;;;;;;;;11.20;96.90;;;;;;4332644;33;42349;-81
2022/05/01 05:02:54;;;;;;;;;;;11.20;97.00;;;;;;4332289;33;44617;-80
2022/05/01 05:05:22;;;;;;;;;;;11.20;96.90;;;;;;4346012;33;42949;-81
2022/05/01 05:07:55;;;;;;;;;;;11.10;97.00;;;;;;4332246;33;44316;-81
2022/05/01 05:10:26;;;;;;;;;;;11.10;97.10;;;;;;4345746;33;44297;-81
2022/05/01 05:12:53;;;;;;;;;;;11.10;97.10;;;;;;4333026;33;44280;-82
2022/05/01 05:15:26;;;;;;;;;;;11.10;97.30;;;;;;4332203;33;45510;-81
2022/05/01 05:18:01;;;;;;;;;;;11.10;97.30;;;;;;4332636;33;46036;-81
2022/05/01 05:20:34;;;;;;;;;;;11.10;97.40;;;;;;4332535;33;44092;-81
2022/05/01 05:23:04;;;;;;;;;;;11.10;97.40;;;;;;4332527;33;43379;-81
2022/05/01 05:25:37;;;;;;;;;;;11.10;97.30;;;;;;4345460;33;44920;-81
2022/05/01 05:28:13;;;;;;;;;;;11.10;97.40;;;;;;4333578;33;20005;-81
2022/05/01 05:30:48;;;;;;;;;;;11.10;97.50;;;;;;4332428;33;44555;-81
2022/05/01 05:33:22;;;;;;;;;;;11.00;97.60;;;;;;4332716;33;43991;-81
2022/05/01 05:35:55;;;;;;;;;;;11.00;97.60;;;;;;4345882;33;43574;-81
2022/05/01 05:38:25;;;;;;;;;;;11.00;97.80;;;;;;4345755;33;44291;-81
2022/05/01 05:40:55;;;;;;;;;;;11.00;97.70;;;;;;4344924;33;43478;-82
2022/05/01 05:43:22;;;;;;;;;;;11.00;97.90;;;;;;4332311;33;44173;-81
2022/05/01 05:45:55;;;;;;;;;;;11.00;97.90;;;;;;4332237;33;44231;-81
2022/05/01 05:48:28;;;;;;;;;;;11.00;97.80;;;;;;4345504;33;45138;-81
2022/05/01 05:51:00;;;;;;;;;;;11.00;98.00;;;;;;4345459;33;43450;-81
2022/05/01 05:53:33;;;;;;;;;;;11.00;97.90;;;;;;4332185;33;46204;-81
2022/05/01 05:56:09;;;;;;;;;;;11.00;98.00;;;;;;4332415;33;44758;-82
2022/05/01 05:58:41;;;;;;;;;;;11.10;98.10;;;;;;4333009;33;19993;-81
2022/05/01 06:01:12;;;;;;;;;;;11.10;98.10;;;;;;4331988;33;42270;-82
2022/05/01 06:03:45;;;;;;;;;;;11.10;98.40;;;;;;4314704;33;44308;-82
2022/05/01 06:06:14;;;;;;;;;;;11.00;98.10;;;;;;4315141;33;44641;-82
2022/05/01 06:08:46;;;;;;;;;;;11.10;98.20;;;;;;4314884;33;44106;-82
2022/05/01 06:11:19;;;;;;;;;;;11.10;98.30;;;;;;4314874;33;43994;-82
2022/05/01 06:13:46;;;;;;;;;;;11.10;98.50;;;;;;4314528;33;42855;-82
2022/05/01 06:16:19;;;;;;;;;;;11.10;98.30;;;;;;4314494;33;42783;-82
2022/05/01 06:18:46;;;;;;;;;;;11.10;98.40;;;;;;4315107;33;44227;-82
2022/05/01 06:21:19;;;;;;;;;;;11.10;98.40;;;;;;4314362;33;43990;-82
2022/05/01 06:23:49;;;;;;;;;;;11.10;98.30;;;;;;4314463;33;44223;-82
2022/05/01 06:26:16;;;;;;;;;;;11.10;98.30;;;;;;4314613;33;44103;-83
2022/05/01 06:29:01;;;;;;;;;;;11.10;98.50;;;;;;4316107;33;20093;-83
2022/05/01 06:31:28;;;;;;;;;;;11.10;98.60;;;;;;4315883;33;44176;-83
2022/05/01 06:33:56;;;;;;;;;;;11.10;98.50;;;;;;4315439;33;44013;-83
2022/05/01 06:36:25;;;;;;;;;;;11.10;98.60;;;;;;4314245;33;42743;-83
2022/05/01 06:39:01;;;;;;;;;;;11.10;98.60;;;;;;4314341;33;45030;-83
2022/05/01 06:41:28;;;;;;;;;;;11.10;98.70;;;;;;4314824;33;44227;-83
2022/05/01 06:44:01;;;;;;;;;;;11.10;98.80;;;;;;4314267;33;44216;-83
2022/05/01 06:46:31;;;;;;;;;;;11.10;98.70;;;;;;4314542;33;43881;-83
2022/05/01 06:49:00;;;;;;;;;;;11.10;98.70;;;;;;4314513;33;43214;-83
2022/05/01 06:51:27;;;;;;;;;;;11.10;98.70;;;;;;4314351;33;44996;-83
2022/05/01 06:54:02;;;;;;;;;;;11.10;98.80;;;;;;4317188;33;42948;-83
2022/05/01 06:56:29;;;;;;;;;;;11.10;98.80;;;;;;4318657;33;43911;-83
2022/05/01 06:58:59;;;;;;;;;;;11.10;98.80;;;;;;4318093;33;20100;-83
2022/05/01 07:01:26;;;;;;;;;;;11.10;98.70;;;;;;4320004;33;44103;-83
2022/05/01 07:03:54;;;;;;;;;;;11.10;98.80;;;;;;4334339;33;43336;-82
2022/05/01 07:06:27;;;;;;;;;;;11.10;98.70;;;;;;4347698;33;43230;-83
2022/05/01 07:08:57;;;;;;;;;;;11.10;99.10;;;;;;4333895;33;43720;-82
2022/05/01 07:11:30;;;;;;;;;;;11.10;99.10;;;;;;4333807;33;45402;-82
2022/05/01 07:14:03;;;;;;;;;;;11.10;99.00;;;;;;4348046;33;43333;-83
2022/05/01 07:16:30;;;;;;;;;;;11.10;99.20;;;;;;4347784;33;45402;-83
2022/05/01 07:19:00;;;;;;;;;;;11.10;99.00;;;;;;4334375;33;44953;-82
2022/05/01 07:21:33;;;;;;;;;;;11.10;98.90;;;;;;4334237;33;43315;-81
2022/05/01 07:24:08;;;;;;;;;;;11.10;99.30;;;;;;4334078;33;43031;-82
2022/05/01 07:26:40;;;;;;;;;;;11.10;99.40;;;;;;4347062;33;42537;-82
2022/05/01 07:29:08;;;;;;;;;;;11.10;99.30;;;;;;4348055;33;19993;-82
2022/05/01 07:31:35;;;;;;;;;;;11.10;99.40;;;;;;4333645;33;42779;-81
2022/05/01 07:34:02;;;;;;;;;;;11.10;99.50;;;;;;4334020;33;43253;-82
2022/05/01 07:36:35;;;;;;;;;;;11.10;99.60;;;;;;4346799;33;45033;-81
2022/05/01 07:39:02;;;;;;;;;;;11.20;99.50;;;;;;4334246;33;43993;-82
2022/05/01 07:41:29;;;;;;;;;;;11.20;99.60;;;;;;4334055;33;43202;-82
2022/05/01 07:44:02;;;;;;;;;;;11.20;99.80;;;;;;4346969;33;44392;-81
2022/05/01 07:46:35;;;;;;;;;;;11.20;99.70;;;;;;4347168;33;44407;-81
2022/05/01 07:49:13;;;;;;;;;;;11.20;99.60;;;;;;4333509;33;43052;-81
2022/05/01 07:51:49;;;;;;;;;;;11.20;99.60;;;;;;4346723;33;42662;-81
2022/05/01 07:54:16;;;;;;;;;;;11.20;99.70;;;;;;4347023;33;44797;-80
2022/05/01 07:56:45;;;;;;;;;;;11.20;99.50;;;;;;4333837;33;42232;-80
2022/05/01 07:59:12;;;;;;;;;;;11.20;99.70;;;;;;4348008;33;20060;-80
2022/05/01 08:01:40;;;;;;;;;;;11.20;99.60;;;;;;4333038;33;42570;-81
2022/05/01 08:06:53;;;;;;;;;;;11.20;99.30;;;;;;4347181;33;44327;-81
2022/05/01 08:09:23;;;;;;;;;;;11.20;99.50;;;;;;4333720;33;45777;-80
2022/05/01 08:11:56;;;;;;;;;;;11.30;99.40;;;;;;4346347;33;44288;-81
2022/05/01 08:14:31;;;;;;;;;;;11.20;99.20;;;;;;4346728;33;43490;-81
2022/05/01 08:16:58;;;;;;;;;;;11.30;99.20;;;;;;4333527;33;44644;-81
2022/05/01 08:22:16;;;;;;;;;;;11.30;99.00;;;;;;4346684;33;43257;-82
2022/05/01 08:24:54;;;;;;;;;;;11.30;99.00;;;;;;4346190;33;45322;-81
2022/05/01 08:27:29;;;;;;;;;;;11.30;98.90;;;;;;4347012;33;43298;-81
2022/05/01 08:30:02;;;;;;;;;;;11.30;98.70;;;;;;4347872;33;19997;-81
2022/05/01 08:32:35;;;;;;;;;;;11.30;99.20;;;;;;4333199;33;44117;-81
2022/05/01 08:35:02;;;;;;;;;;;11.30;99.00;;;;;;4333281;33;44992;-82
2022/05/01 08:37:29;;;;;;;;;;;11.30;98.80;;;;;;4346222;33;44214;-81
2022/05/01 08:40:02;;;;;;;;;;;11.30;98.60;;;;;;4346323;33;42097;-81
2022/05/01 08:42:35;;;;;;;;;;;11.40;98.80;;;;;;4346401;33;44886;-81
2022/05/01 08:45:12;;;;;;;;;;;11.40;98.80;;;;;;4333009;33;43345;-81
2022/05/01 08:47:49;;;;;;;;;;;11.40;98.70;;;;;;4345876;33;44021;-81
2022/05/01 08:50:22;;;;;;;;;;;11.40;98.70;;;;;;4346380;33;46202;-81
2022/05/01 08:52:55;;;;;;;;;;;11.40;98.50;;;;;;4333228;33;43835;-81
2022/05/01 08:55:22;;;;;;;;;;;11.40;98.50;;;;;;4345846;33;43459;-81
2022/05/01 08:57:50;;;;;;;;;;;11.40;98.80;;;;;;4332483;33;43796;-81
2022/05/01 09:00:17;;;;;;;;;;;11.40;98.50;;;;;;4333192;33;45055;-81
2022/05/01 09:02:45;;;;;;;;;;;11.50;98.60;;;;;;4332182;33;44122;-81
2022/05/01 09:05:18;;;;;;;;;;;11.50;98.60;;;;;;4332897;33;43169;-82
2022/05/01 09:07:47;;;;;;;;;;;11.50;98.50;;;;;;4332493;33;42824;-82
2022/05/01 09:10:18;;;;;;;;;;;11.50;98.40;;;;;;4332646;33;44177;-82
2022/05/01 09:12:53;;;;;;;;;;;11.50;98.20;;;;;;4332179;33;44800;-82
2022/05/01 09:15:35;;;;;;;;;;;11.50;98.20;;;;;;4332520;33;43959;-82
2022/05/01 09:18:08;;;;;;;;;;;11.50;98.00;;;;;;4333050;33;43592;-82
2022/05/01 09:20:55;;;;;;;;;;;11.50;98.00;;;;;;4332070;33;44831;-82
2022/05/01 09:23:43;;;;;;;;;;;11.50;98.10;;;;;;4332272;33;45042;-82
2022/05/01 09:26:12;;;;;;;;;;;11.50;98.10;;;;;;4345564;33;43297;-82
2022/05/01 09:28:48;;;;;;;;;;;11.50;98.00;;;;;;4332094;33;45749;-81
2022/05/01 09:31:16;;;;;;;;;;;11.50;97.90;;;;;;4331959;33;43874;-81
2022/05/01 09:33:47;;;;;;;;;;;11.50;97.90;;;;;;4331856;33;45411;-82
2022/05/01 09:36:33;;;;;;;;;;;11.60;98.00;;;;;;4332344;33;44773;-82
2022/05/01 09:39:04;;;;;;;;;;;11.60;97.80;;;;;;4345650;33;43419;-82
2022/05/01 09:41:42;;;;;;;;;;;11.60;97.80;;;;;;4332545;33;43494;-82
2022/05/01 09:44:14;;;;;;;;;;;11.60;97.70;;;;;;4331839;33;43823;-82
2022/05/01 09:46:42;;;;;;;;;;;11.60;97.60;;;;;;4332293;33;44246;-82
2022/05/01 09:49:12;;;;;;;;;;;11.60;97.60;;;;;;4331755;33;43512;-82
2022/05/01 09:51:46;;;;;;;;;;;11.60;97.60;;;;;;4331869;33;44181;-82
2022/05/01 09:54:23;;;;;;;;;;;11.60;97.50;;;;;;4345491;33;44085;-82
2022/05/01 09:56:54;;;;;;;;;;;11.60;97.40;;;;;;4332242;33;43793;-82
2022/05/01 09:59:27;;;;;;;;;;;11.60;97.40;;;;;;4345436;33;44513;-81
2022/05/01 10:02:03;;;;;;;;;;;11.60;97.40;;;;;;4330034;33;20059;-81
2022/05/01 10:04:36;;;;;;;;;;;11.60;97.30;;;;;;4330196;33;42869;-81
2022/05/01 10:07:11;;;;;;;;;;;11.60;97.00;;;;;;4329202;33;42823;-82
2022/05/01 10:09:40;;;;;;;;;;;11.60;97.20;;;;;;4326303;33;44057;-82
2022/05/01 10:12:10;;;;;;;;;;;11.70;97.20;;;;;;4314229;33;44006;-82
2022/05/01 10:14:37;;;;;;;;;;;11.70;97.10;;;;;;4313114;33;42906;-82
2022/05/01 10:17:06;;;;;;;;;;;11.70;97.00;;;;;;4313496;33;44054;-83
2022/05/01 10:19:34;;;;;;;;;;;11.70;97.10;;;;;;4313956;33;44765;-82
2022/05/01 10:22:07;;;;;;;;;;;11.70;97.10;;;;;;4314515;33;42716;-81
2022/05/01 10:24:34;;;;;;;;;;;11.70;97.10;;;;;;4314748;33;43216;-81
2022/05/01 10:27:27;;;;;;;;;;;11.70;97.00;;;;;;4316690;33;43970;-81
2022/05/01 10:33:09;;;;;;;;;;;11.70;97.00;;;;;;4319205;33;20013;-81
2022/05/01 10:35:55;;;;;;;;;;;11.70;96.90;;;;;;4318776;33;43236;-80
2022/05/01 10:38:23;;;;;;;;;;;11.70;96.90;;;;;;4317311;33;44156;-81
2022/05/01 10:40:56;;;;;;;;;;;11.70;96.90;;;;;;4317746;33;43384;-81
2022/05/01 10:43:29;;;;;;;;;;;11.80;96.90;;;;;;4318603;33;43178;-81
2022/05/01 10:46:04;;;;;;;;;;;11.80;96.80;;;;;;4317514;33;42878;-81
2022/05/01 10:48:35;;;;;;;;;;;11.80;96.80;;;;;;4317623;33;43474;-81
2022/05/01 10:51:21;;;;;;;;;;;11.80;96.70;;;;;;4317312;33;44076;-81
2022/05/01 10:54:07;;;;;;;;;;;11.80;96.80;;;;;;4317063;33;44222;-81
2022/05/01 10:56:45;;;;;;;;;;;11.80;96.80;;;;;;4317470;33;42580;-81
2022/05/01 10:59:38;;;;;;;;;;;11.80;96.80;;;;;;4317490;33;46347;-81
2022/05/01 11:02:22;;;;;;;;;;;11.80;96.60;;;;;;4317218;33;43906;-82
2022/05/01 11:04:55;;;;;;;;;;;11.80;96.60;;;;;;4318188;33;20470;-81
2022/05/01 11:07:28;;;;;;;;;;;11.80;96.60;;;;;;4317458;33;43969;-81
2022/05/01 11:10:04;;;;;;;;;;;11.90;96.60;;;;;;4316973;33;42890;-82
2022/05/01 11:12:39;;;;;;;;;;;11.90;96.50;;;;;;4318389;33;44141;-82
2022/05/01 11:15:08;;;;;;;;;;;11.90;96.50;;;;;;4318530;33;44744;-82
2022/05/01 11:17:46;;;;;;;;;;;11.90;96.50;;;;;;4318186;33;43201;-81
2022/05/01 11:20:22;;;;;;;;;;;11.90;96.30;;;;;;4316763;33;42537;-82
2022/05/01 11:22:58;;;;;;;;;;;11.90;96.30;;;;;;4317091;33;43339;-81
2022/05/01 11:25:42;;;;;;;;;;;11.90;96.00;;;;;;4317146;33;43203;-81
2022/05/01 11:28:29;;;;;;;;;;;11.90;96.00;;;;;;4316986;33;43339;-81
2022/05/01 11:31:01;;;;;;;;;;;11.90;96.00;;;;;;4317987;33;43028;-82
2022/05/01 11:33:28;;;;;;;;;;;11.90;96.00;;;;;;4316690;33;44200;-82
2022/05/01 11:36:05;;;;;;;;;;;11.90;96.00;;;;;;4317221;33;20341;-81
2022/05/01 11:38:51;;;;;;;;;;;11.90;95.90;;;;;;4316381;33;44188;-81
2022/05/01 11:41:39;;;;;;;;;;;11.90;96.00;;;;;;4316451;33;44117;-81
2022/05/01 11:44:19;;;;;;;;;;;11.90;95.60;;;;;;4316926;33;43393;-81
2022/05/01 11:46:49;;;;;;;;;;;11.90;95.70;;;;;;4316334;33;42892;-81
2022/05/01 11:49:16;;;;;;;;;;;12.00;95.90;;;;;;4316370;33;43027;-81
2022/05/01 11:51:49;;;;;;;;;;;12.00;95.90;;;;;;4316694;33;43596;-81
2022/05/01 11:54:18;;;;;;;;;;;12.00;96.00;;;;;;4316615;33;44687;-81
2022/05/01 12:02:33;;;;;;;;;;;12.00;95.90;;;;;;4324764;33;46161;-81
2022/05/01 12:05:06;;;;;;;;;;;12.10;95.70;;;;;;4319191;33;43460;-82
2022/05/01 12:07:40;;;;;;;;;;;12.10;95.40;;;;;;4331834;33;43478;-82
2022/05/01 12:10:12;;;;;;;;;;;12.10;95.30;;;;;;4318933;33;44133;-82
2022/05/01 12:12:39;;;;;;;;;;;12.10;95.50;;;;;;4330997;33;43474;-83
2022/05/01 12:15:10;;;;;;;;;;;12.10;95.50;;;;;;4319486;33;43945;-82
2022/05/01 12:17:42;;;;;;;;;;;12.10;95.50;;;;;;4318713;33;44911;-83
2022/05/01 12:20:10;;;;;;;;;;;12.10;95.40;;;;;;4331264;33;20049;-82
2022/05/01 12:22:38;;;;;;;;;;;12.10;95.40;;;;;;4317810;33;43297;-81
2022/05/01 12:25:12;;;;;;;;;;;12.10;95.30;;;;;;4318094;33;43824;-82
2022/05/01 12:27:45;;;;;;;;;;;12.20;95.40;;;;;;4318363;33;42160;-82
2022/05/01 12:30:13;;;;;;;;;;;12.20;95.20;;;;;;4331752;33;42786;-82
2022/05/01 12:32:52;;;;;;;;;;;12.20;94.90;;;;;;4318165;33;44202;-81
2022/05/01 12:35:19;;;;;;;;;;;12.20;94.70;;;;;;4331767;33;44870;-82
2022/05/01 12:37:50;;;;;;;;;;;12.20;94.90;;;;;;4318769;33;45779;-82
2022/05/01 12:45:55;;;;;;;;;;;12.20;94.90;;;;;;4331693;33;44207;-82
2022/05/01 12:48:22;;;;;;;;;;;12.20;94.90;;;;;;4317977;33;46015;-81
2022/05/01 12:50:51;;;;;;;;;;;12.20;95.10;;;;;;4317684;33;43397;-82
2022/05/01 12:53:27;;;;;;;;;;;12.20;94.90;;;;;;4318307;33;44753;-81
2022/05/01 12:55:55;;;;;;;;;;;12.20;94.90;;;;;;4318332;33;45567;-82
2022/05/01 12:58:27;;;;;;;;;;;12.20;94.90;;;;;;4318400;33;44231;-82
2022/05/01 13:00:58;;;;;;;;;;;12.20;95.10;;;;;;4318822;33;45593;-81
2022/05/01 13:03:38;;;;;;;;;;;12.30;95.50;;;;;;4317659;33;44134;-81
2022/05/01 13:06:10;;;;;;;;;;;12.30;95.50;;;;;;4330978;33;43245;-81
2022/05/01 13:09:00;;;;;;;;;;;12.40;95.20;;;;;;4318732;33;20005;-82
2022/05/01 13:11:33;;;;;;;;;;;12.40;95.30;;;;;;4330890;33;42541;-81
2022/05/01 13:14:06;;;;;;;;;;;12.40;95.30;;;;;;4330843;33;43013;-81
2022/05/01 13:16:33;;;;;;;;;;;12.40;95.00;;;;;;4317665;33;42910;-81
2022/05/01 13:19:08;;;;;;;;;;;12.50;95.00;;;;;;4317845;33;43858;-81
2022/05/01 13:21:37;;;;;;;;;;;12.40;95.10;;;;;;4331214;33;43354;-81
2022/05/01 13:24:10;;;;;;;;;;;12.50;95.30;;;;;;4317564;33;42878;-81
2022/05/01 13:26:38;;;;;;;;;;;12.50;95.00;;;;;;4318085;33;44270;-81
2022/05/01 13:29:07;;;;;;;;;;;12.50;95.00;;;;;;4317725;33;45320;-82
2022/05/01 13:31:44;;;;;;;;;;;12.50;95.00;;;;;;4331117;33;44391;-81
2022/05/01 13:34:11;;;;;;;;;;;12.50;94.90;;;;;;4317793;33;45517;-81
2022/05/01 13:36:39;;;;;;;;;;;12.50;94.80;;;;;;4317849;33;43916;-81
2022/05/01 13:39:12;;;;;;;;;;;12.50;94.90;;;;;;4318724;33;20057;-81
2022/05/01 13:47:14;;;;;;;;;;;12.60;94.70;;;;;;4330919;33;44242;-81
2022/05/01 13:49:42;;;;;;;;;;;12.50;94.80;;;;;;4317478;33;42726;-81
2022/05/01 13:52:13;;;;;;;;;;;12.50;94.70;;;;;;4330756;33;44096;-81
2022/05/01 13:54:45;;;;;;;;;;;12.50;94.70;;;;;;4318086;33;43177;-81
2022/05/01 13:57:15;;;;;;;;;;;12.60;94.80;;;;;;4317510;33;42775;-81
2022/05/01 13:59:45;;;;;;;;;;;12.60;94.80;;;;;;4317196;33;44022;-80
2022/05/01 14:02:19;;;;;;;;;;;12.60;94.90;;;;;;4314153;33;45041;-80
2022/05/01 14:04:55;;;;;;;;;;;12.60;95.30;;;;;;4315927;33;44155;-80
2022/05/01 14:07:28;;;;;;;;;;;12.70;94.90;;;;;;4316071;33;43156;-81
2022/05/01 14:10:01;;;;;;;;;;;12.70;95.20;;;;;;4315638;33;20037;-81
2022/05/01 14:12:37;;;;;;;;;;;12.70;95.10;;;;;;4315619;33;43192;-81
2022/05/01 14:15:04;;;;;;;;;;;12.80;95.10;;;;;;4314475;33;42793;-81
2022/05/01 14:17:36;;;;;;;;;;;12.80;95.00;;;;;;4315843;33;44147;-81
2022/05/01 14:20:12;;;;;;;;;;;12.80;95.10;;;;;;4314874;33;44749;-81
2022/05/01 14:22:39;;;;;;;;;;;12.80;95.20;;;;;;4314546;33;44903;-81
2022/05/01 14:25:09;;;;;;;;;;;12.90;95.10;;;;;;4315354;33;43464;-81
2022/05/01 14:27:36;;;;;;;;;;;12.90;94.80;;;;;;4314404;33;44359;-82
2022/05/01 14:30:09;;;;;;;;;;;12.90;94.70;;;;;;4315863;33;42690;-81
2022/05/01 14:32:51;;;;;;;;;;;12.90;94.80;;;;;;4315834;33;44164;-81
2022/05/01 14:35:27;;;;;;;;;;;12.90;94.50;;;;;;4315827;33;44442;-81
2022/05/01 14:38:06;;;;;;;;;;;12.90;93.90;;;;;;4315802;33;45700;-81
2022/05/01 14:40:43;;;;;;;;;;;12.90;94.20;;;;;;4316756;33;19990;-81
2022/05/01 14:43:18;;;;;;;;;;;12.90;94.10;;;;;;4315905;33;44471;-81
2022/05/01 14:45:49;;;;;;;;;;;13.00;94.40;;;;;;4316070;33;43243;-81
2022/05/01 14:48:32;;;;;;;;;;;13.00;94.50;;;;;;4316009;33;43963;-81
2022/05/01 14:50:59;;;;;;;;;;;13.00;94.20;;;;;;4314274;33;44603;-81
2022/05/01 14:53:29;;;;;;;;;;;13.00;94.30;;;;;;4314665;33;45756;-81
2022/05/01 14:56:02;;;;;;;;;;;13.00;94.30;;;;;;4314674;33;44470;-81
2022/05/01 15:06:57;;;;;;;;;;;13.00;94.20;;;;;;4330150;33;44242;-80
2022/05/01 15:09:25;;;;;;;;;;;13.00;93.70;;;;;;4330306;33;45676;-80
2022/05/01 15:11:52;;;;;;;;;;;13.00;93.90;;;;;;4329766;33;43332;-80
2022/05/01 15:14:24;;;;;;;;;;;13.00;93.80;;;;;;4332483;33;43200;-80
2022/05/01 15:17:01;;;;;;;;;;;13.00;93.70;;;;;;4333452;33;44012;-80
2022/05/01 15:19:44;;;;;;;;;;;13.10;93.80;;;;;;4332475;33;44286;-80
2022/05/01 15:22:23;;;;;;;;;;;13.00;93.80;;;;;;4319690;33;44605;-80
2022/05/01 15:24:59;;;;;;;;;;;13.00;94.20;;;;;;4319536;33;43114;-80
2022/05/01 15:27:38;;;;;;;;;;;13.10;93.80;;;;;;4319194;33;44770;-80
2022/05/01 15:30:05;;;;;;;;;;;13.10;94.10;;;;;;4332624;33;43224;-80
2022/05/01 15:35:36;;;;;;;;;;;13.10;94.40;;;;;;4332815;33;43024;-81